sensor_id;sensor_type;location;lat;lon;timestamp;P1;durP1;ratioP1;P2;durP2;ratioP2
15055;SDS011;7626;42.674;23.284;2023-04-24T00:00:46;10.30;;;9.20;;
15055;SDS011;7626;42.674;23.284;2023-04-24T00:03:14;10.00;;;8.70;;
15055;SDS011;7626;42.674;23.284;2023-04-24T00:05:42;9.93;;;8.93;;
15055;SDS011;7626;42.674;23.284;2023-04-24T00:08:11;9.60;;;8.60;;
15055;SDS011;7626;42.674;23.284;2023-04-24T00:10:39;8.17;;;7.37;;
15055;SDS011;7626;42.674;23.284;2023-04-24T00:13:07;9.07;;;7.37;;
15055;SDS011;7626;42.674;23.284;2023-04-24T00:15:34;9.03;;;8.13;;
15055;SDS011;7626;42.674;23.284;2023-04-24T00:18:03;9.60;;;8.17;;
15055;SDS011;7626;42.674;23.284;2023-04-24T00:20:30;8.97;;;8.07;;
15055;SDS011;7626;42.674;23.284;2023-04-24T00:23:02;9.13;;;8.33;;
15055;SDS011;7626;42.674;23.284;2023-04-24T00:25:32;9.97;;;8.03;;
15055;SDS011;7626;42.674;23.284;2023-04-24T00:28:03;9.67;;;8.47;;
15055;SDS011;7626;42.674;23.284;2023-04-24T00:30:31;8.50;;;7.70;;
15055;SDS011;7626;42.674;23.284;2023-04-24T00:32:59;9.37;;;8.27;;
15055;SDS011;7626;42.674;23.284;2023-04-24T00:35:29;9.83;;;8.17;;
15055;SDS011;7626;42.674;23.284;2023-04-24T00:37:56;10.57;;;8.63;;
15055;SDS011;7626;42.674;23.284;2023-04-24T00:40:24;10.53;;;9.43;;
15055;SDS011;7626;42.674;23.284;2023-04-24T00:42:53;10.13;;;9.13;;
15055;SDS011;7626;42.674;23.284;2023-04-24T00:45:21;10.93;;;9.87;;
15055;SDS011;7626;42.674;23.284;2023-04-24T00:47:49;11.57;;;10.37;;
15055;SDS011;7626;42.674;23.284;2023-04-24T00:50:20;11.50;;;10.17;;
15055;SDS011;7626;42.674;23.284;2023-04-24T00:52:48;12.23;;;9.90;;
15055;SDS011;7626;42.674;23.284;2023-04-24T00:55:15;10.37;;;9.23;;
15055;SDS011;7626;42.674;23.284;2023-04-24T00:57:46;11.33;;;9.77;;
15055;SDS011;7626;42.674;23.284;2023-04-24T01:00:15;11.27;;;10.07;;
15055;SDS011;7626;42.674;23.284;2023-04-24T01:02:46;11.00;;;9.90;;
15055;SDS011;7626;42.674;23.284;2023-04-24T01:05:15;11.60;;;10.50;;
15055;SDS011;7626;42.674;23.284;2023-04-24T01:07:46;11.40;;;10.23;;
15055;SDS011;7626;42.674;23.284;2023-04-24T01:10:15;11.90;;;10.60;;
15055;SDS011;7626;42.674;23.284;2023-04-24T01:12:44;12.53;;;11.33;;
15055;SDS011;7626;42.674;23.284;2023-04-24T01:15:12;12.33;;;11.10;;
15055;SDS011;7626;42.674;23.284;2023-04-24T01:17:44;12.80;;;11.57;;
15055;SDS011;7626;42.674;23.284;2023-04-24T01:20:13;12.93;;;11.63;;
15055;SDS011;7626;42.674;23.284;2023-04-24T01:22:43;12.93;;;11.60;;
15055;SDS011;7626;42.674;23.284;2023-04-24T01:25:10;13.33;;;11.83;;
15055;SDS011;7626;42.674;23.284;2023-04-24T01:27:38;12.53;;;11.23;;
15055;SDS011;7626;42.674;23.284;2023-04-24T01:30:07;10.37;;;9.37;;
15055;SDS011;7626;42.674;23.284;2023-04-24T01:32:35;9.07;;;8.17;;
15055;SDS011;7626;42.674;23.284;2023-04-24T01:35:06;10.27;;;8.00;;
15055;SDS011;7626;42.674;23.284;2023-04-24T01:37:34;7.90;;;6.63;;
15055;SDS011;7626;42.674;23.284;2023-04-24T01:40:05;6.93;;;5.80;;
15055;SDS011;7626;42.674;23.284;2023-04-24T01:42:34;9.17;;;5.70;;
15055;SDS011;7626;42.674;23.284;2023-04-24T01:45:02;6.60;;;5.90;;
15055;SDS011;7626;42.674;23.284;2023-04-24T01:47:31;7.03;;;6.10;;
15055;SDS011;7626;42.674;23.284;2023-04-24T01:50:01;7.27;;;6.30;;
15055;SDS011;7626;42.674;23.284;2023-04-24T01:52:32;7.20;;;6.50;;
15055;SDS011;7626;42.674;23.284;2023-04-24T01:55:02;9.83;;;5.43;;
15055;SDS011;7626;42.674;23.284;2023-04-24T01:57:34;6.43;;;5.70;;
15055;SDS011;7626;42.674;23.284;2023-04-24T02:00:03;6.50;;;5.83;;
15055;SDS011;7626;42.674;23.284;2023-04-24T02:02:31;6.13;;;5.57;;
15055;SDS011;7626;42.674;23.284;2023-04-24T02:04:59;6.90;;;5.73;;
15055;SDS011;7626;42.674;23.284;2023-04-24T02:07:29;6.93;;;5.67;;
15055;SDS011;7626;42.674;23.284;2023-04-24T02:09:57;6.77;;;6.07;;
15055;SDS011;7626;42.674;23.284;2023-04-24T02:12:25;7.13;;;6.43;;
15055;SDS011;7626;42.674;23.284;2023-04-24T02:14:54;8.83;;;6.60;;
15055;SDS011;7626;42.674;23.284;2023-04-24T02:17:22;6.60;;;6.07;;
15055;SDS011;7626;42.674;23.284;2023-04-24T02:19:50;6.43;;;5.73;;
15055;SDS011;7626;42.674;23.284;2023-04-24T02:22:17;7.67;;;6.77;;
15055;SDS011;7626;42.674;23.284;2023-04-24T02:24:45;8.70;;;6.77;;
15055;SDS011;7626;42.674;23.284;2023-04-24T02:27:13;7.87;;;7.07;;
15055;SDS011;7626;42.674;23.284;2023-04-24T02:29:41;7.43;;;6.73;;
15055;SDS011;7626;42.674;23.284;2023-04-24T02:32:10;9.00;;;6.90;;
15055;SDS011;7626;42.674;23.284;2023-04-24T02:34:38;8.07;;;7.27;;
15055;SDS011;7626;42.674;23.284;2023-04-24T02:37:06;8.97;;;8.07;;
15055;SDS011;7626;42.674;23.284;2023-04-24T02:39:34;19.27;;;17.30;;
15055;SDS011;7626;42.674;23.284;2023-04-24T02:42:02;20.00;;;17.83;;
15055;SDS011;7626;42.674;23.284;2023-04-24T02:44:30;13.40;;;10.77;;
15055;SDS011;7626;42.674;23.284;2023-04-24T02:47:00;11.33;;;8.67;;
15055;SDS011;7626;42.674;23.284;2023-04-24T02:49:29;15.47;;;13.80;;
15055;SDS011;7626;42.674;23.284;2023-04-24T02:51:57;18.07;;;16.17;;
15055;SDS011;7626;42.674;23.284;2023-04-24T02:54:24;12.57;;;11.40;;
15055;SDS011;7626;42.674;23.284;2023-04-24T02:56:54;11.50;;;10.30;;
15055;SDS011;7626;42.674;23.284;2023-04-24T02:59:23;10.83;;;9.80;;
15055;SDS011;7626;42.674;23.284;2023-04-24T03:01:50;9.77;;;8.77;;
15055;SDS011;7626;42.674;23.284;2023-04-24T03:04:18;9.50;;;8.60;;
15055;SDS011;7626;42.674;23.284;2023-04-24T03:06:52;10.67;;;9.47;;
15055;SDS011;7626;42.674;23.284;2023-04-24T03:09:23;12.37;;;11.00;;
15055;SDS011;7626;42.674;23.284;2023-04-24T03:11:51;20.00;;;18.10;;
15055;SDS011;7626;42.674;23.284;2023-04-24T03:14:19;12.90;;;11.70;;
15055;SDS011;7626;42.674;23.284;2023-04-24T03:16:46;10.97;;;9.93;;
15055;SDS011;7626;42.674;23.284;2023-04-24T03:19:14;10.60;;;9.60;;
15055;SDS011;7626;42.674;23.284;2023-04-24T03:21:42;11.00;;;9.77;;
15055;SDS011;7626;42.674;23.284;2023-04-24T03:24:11;10.70;;;9.70;;
15055;SDS011;7626;42.674;23.284;2023-04-24T03:26:39;10.43;;;9.40;;
15055;SDS011;7626;42.674;23.284;2023-04-24T03:29:07;10.87;;;9.80;;
15055;SDS011;7626;42.674;23.284;2023-04-24T03:31:35;10.90;;;9.80;;
15055;SDS011;7626;42.674;23.284;2023-04-24T03:34:01;11.60;;;10.57;;
15055;SDS011;7626;42.674;23.284;2023-04-24T03:36:30;11.40;;;10.20;;
15055;SDS011;7626;42.674;23.284;2023-04-24T03:39:00;11.83;;;9.93;;
15055;SDS011;7626;42.674;23.284;2023-04-24T03:41:29;11.07;;;9.97;;
15055;SDS011;7626;42.674;23.284;2023-04-24T03:43:59;11.37;;;10.27;;
15055;SDS011;7626;42.674;23.284;2023-04-24T03:46:28;11.23;;;10.20;;
15055;SDS011;7626;42.674;23.284;2023-04-24T03:48:56;11.53;;;10.17;;
15055;SDS011;7626;42.674;23.284;2023-04-24T03:51:24;10.47;;;9.53;;
15055;SDS011;7626;42.674;23.284;2023-04-24T03:53:51;12.13;;;9.97;;
15055;SDS011;7626;42.674;23.284;2023-04-24T03:56:19;11.97;;;10.00;;
15055;SDS011;7626;42.674;23.284;2023-04-24T03:58:50;10.83;;;9.67;;
15055;SDS011;7626;42.674;23.284;2023-04-24T04:01:18;11.07;;;10.00;;
15055;SDS011;7626;42.674;23.284;2023-04-24T04:03:45;12.10;;;9.87;;
15055;SDS011;7626;42.674;23.284;2023-04-24T04:06:12;11.77;;;9.97;;
15055;SDS011;7626;42.674;23.284;2023-04-24T04:08:38;12.40;;;11.20;;
15055;SDS011;7626;42.674;23.284;2023-04-24T04:11:05;12.63;;;9.77;;
15055;SDS011;7626;42.674;23.284;2023-04-24T04:13:35;13.97;;;10.03;;
15055;SDS011;7626;42.674;23.284;2023-04-24T04:16:04;11.37;;;10.23;;
15055;SDS011;7626;42.674;23.284;2023-04-24T04:18:35;13.50;;;10.00;;
15055;SDS011;7626;42.674;23.284;2023-04-24T04:21:03;12.03;;;9.87;;
15055;SDS011;7626;42.674;23.284;2023-04-24T04:23:30;11.17;;;10.07;;
15055;SDS011;7626;42.674;23.284;2023-04-24T04:26:05;12.63;;;10.30;;
15055;SDS011;7626;42.674;23.284;2023-04-24T04:28:33;10.57;;;9.47;;
15055;SDS011;7626;42.674;23.284;2023-04-24T04:31:00;10.83;;;8.80;;
15055;SDS011;7626;42.674;23.284;2023-04-24T04:33:32;11.03;;;9.87;;
15055;SDS011;7626;42.674;23.284;2023-04-24T04:35:59;12.10;;;9.60;;
15055;SDS011;7626;42.674;23.284;2023-04-24T04:38:30;19.20;;;10.13;;
15055;SDS011;7626;42.674;23.284;2023-04-24T04:41:02;18.90;;;10.57;;
15055;SDS011;7626;42.674;23.284;2023-04-24T04:43:30;11.97;;;9.90;;
15055;SDS011;7626;42.674;23.284;2023-04-24T04:46:00;13.07;;;9.90;;
15055;SDS011;7626;42.674;23.284;2023-04-24T04:48:44;13.87;;;10.83;;
15055;SDS011;7626;42.674;23.284;2023-04-24T04:51:12;11.70;;;10.30;;
15055;SDS011;7626;42.674;23.284;2023-04-24T04:53:40;13.87;;;10.97;;
15055;SDS011;7626;42.674;23.284;2023-04-24T04:56:07;11.77;;;10.57;;
15055;SDS011;7626;42.674;23.284;2023-04-24T04:58:35;16.83;;;12.03;;
15055;SDS011;7626;42.674;23.284;2023-04-24T05:01:04;14.30;;;11.27;;
15055;SDS011;7626;42.674;23.284;2023-04-24T05:06:24;19.60;;;15.07;;
15055;SDS011;7626;42.674;23.284;2023-04-24T05:08:51;13.17;;;10.93;;
15055;SDS011;7626;42.674;23.284;2023-04-24T05:11:23;9.60;;;7.97;;
15055;SDS011;7626;42.674;23.284;2023-04-24T05:13:50;7.33;;;6.63;;
15055;SDS011;7626;42.674;23.284;2023-04-24T05:16:20;7.27;;;6.50;;
15055;SDS011;7626;42.674;23.284;2023-04-24T05:18:49;8.33;;;7.43;;
15055;SDS011;7626;42.674;23.284;2023-04-24T05:21:16;7.20;;;6.43;;
15055;SDS011;7626;42.674;23.284;2023-04-24T05:23:49;8.97;;;8.07;;
15055;SDS011;7626;42.674;23.284;2023-04-24T05:26:22;7.63;;;6.87;;
15055;SDS011;7626;42.674;23.284;2023-04-24T05:28:48;7.20;;;6.40;;
15055;SDS011;7626;42.674;23.284;2023-04-24T05:31:17;8.97;;;6.70;;
15055;SDS011;7626;42.674;23.284;2023-04-24T05:33:46;10.77;;;6.90;;
15055;SDS011;7626;42.674;23.284;2023-04-24T05:36:14;10.90;;;8.10;;
15055;SDS011;7626;42.674;23.284;2023-04-24T05:38:41;8.47;;;7.50;;
15055;SDS011;7626;42.674;23.284;2023-04-24T05:41:11;9.33;;;6.90;;
15055;SDS011;7626;42.674;23.284;2023-04-24T05:43:39;8.40;;;7.10;;
15055;SDS011;7626;42.674;23.284;2023-04-24T05:46:07;11.33;;;7.13;;
15055;SDS011;7626;42.674;23.284;2023-04-24T05:48:34;9.37;;;7.10;;
15055;SDS011;7626;42.674;23.284;2023-04-24T05:51:02;8.13;;;7.30;;
15055;SDS011;7626;42.674;23.284;2023-04-24T05:53:33;10.93;;;7.77;;
15055;SDS011;7626;42.674;23.284;2023-04-24T05:56:02;7.87;;;7.07;;
15055;SDS011;7626;42.674;23.284;2023-04-24T05:58:30;8.70;;;6.90;;
15055;SDS011;7626;42.674;23.284;2023-04-24T06:01:00;10.07;;;7.30;;
15055;SDS011;7626;42.674;23.284;2023-04-24T06:03:31;8.83;;;7.23;;
15055;SDS011;7626;42.674;23.284;2023-04-24T06:06:00;8.47;;;7.37;;
15055;SDS011;7626;42.674;23.284;2023-04-24T06:08:27;7.70;;;6.87;;
15055;SDS011;7626;42.674;23.284;2023-04-24T06:10:53;8.97;;;7.27;;
15055;SDS011;7626;42.674;23.284;2023-04-24T06:13:23;10.40;;;7.50;;
15055;SDS011;7626;42.674;23.284;2023-04-24T06:16:09;8.87;;;7.73;;
15055;SDS011;7626;42.674;23.284;2023-04-24T06:18:39;10.37;;;8.13;;
15055;SDS011;7626;42.674;23.284;2023-04-24T06:21:05;10.23;;;8.23;;
15055;SDS011;7626;42.674;23.284;2023-04-24T06:23:32;13.63;;;8.73;;
15055;SDS011;7626;42.674;23.284;2023-04-24T06:26:02;10.10;;;8.67;;
15055;SDS011;7626;42.674;23.284;2023-04-24T06:28:31;11.27;;;8.70;;
15055;SDS011;7626;42.674;23.284;2023-04-24T06:30:59;11.73;;;8.97;;
15055;SDS011;7626;42.674;23.284;2023-04-24T06:36:26;10.37;;;8.93;;
15055;SDS011;7626;42.674;23.284;2023-04-24T06:38:53;10.10;;;7.97;;
15055;SDS011;7626;42.674;23.284;2023-04-24T06:41:19;10.10;;;8.17;;
15055;SDS011;7626;42.674;23.284;2023-04-24T06:43:46;10.40;;;8.37;;
15055;SDS011;7626;42.674;23.284;2023-04-24T06:46:27;9.90;;;8.90;;
15055;SDS011;7626;42.674;23.284;2023-04-24T06:48:55;14.10;;;9.03;;
15055;SDS011;7626;42.674;23.284;2023-04-24T06:51:29;10.77;;;9.60;;
15055;SDS011;7626;42.674;23.284;2023-04-24T06:53:58;14.10;;;8.67;;
15055;SDS011;7626;42.674;23.284;2023-04-24T06:56:28;10.37;;;9.07;;
15055;SDS011;7626;42.674;23.284;2023-04-24T06:58:55;13.07;;;9.20;;
15055;SDS011;7626;42.674;23.284;2023-04-24T07:01:21;12.63;;;9.80;;
15055;SDS011;7626;42.674;23.284;2023-04-24T07:03:51;12.07;;;9.23;;
15055;SDS011;7626;42.674;23.284;2023-04-24T07:06:21;10.37;;;9.30;;
15055;SDS011;7626;42.674;23.284;2023-04-24T07:08:55;10.93;;;8.67;;
15055;SDS011;7626;42.674;23.284;2023-04-24T07:11:31;10.30;;;9.00;;
15055;SDS011;7626;42.674;23.284;2023-04-24T07:14:02;12.97;;;8.67;;
15055;SDS011;7626;42.674;23.284;2023-04-24T07:16:30;10.37;;;8.00;;
15055;SDS011;7626;42.674;23.284;2023-04-24T07:18:57;8.90;;;8.07;;
15055;SDS011;7626;42.674;23.284;2023-04-24T07:21:23;11.67;;;9.30;;
15055;SDS011;7626;42.674;23.284;2023-04-24T07:23:50;9.83;;;8.83;;
15055;SDS011;7626;42.674;23.284;2023-04-24T07:26:19;10.53;;;8.80;;
15055;SDS011;7626;42.674;23.284;2023-04-24T07:28:51;9.30;;;8.40;;
15055;SDS011;7626;42.674;23.284;2023-04-24T07:31:17;11.37;;;8.67;;
15055;SDS011;7626;42.674;23.284;2023-04-24T07:33:44;9.60;;;8.43;;
15055;SDS011;7626;42.674;23.284;2023-04-24T07:36:11;9.60;;;7.63;;
15055;SDS011;7626;42.674;23.284;2023-04-24T07:38:45;9.10;;;7.67;;
15055;SDS011;7626;42.674;23.284;2023-04-24T07:41:13;8.53;;;7.73;;
15055;SDS011;7626;42.674;23.284;2023-04-24T07:43:56;7.97;;;7.17;;
15055;SDS011;7626;42.674;23.284;2023-04-24T07:46:24;6.97;;;5.83;;
15055;SDS011;7626;42.674;23.284;2023-04-24T07:48:56;7.77;;;6.77;;
15055;SDS011;7626;42.674;23.284;2023-04-24T07:51:25;11.37;;;8.20;;
15055;SDS011;7626;42.674;23.284;2023-04-24T07:53:53;9.10;;;7.87;;
15055;SDS011;7626;42.674;23.284;2023-04-24T07:56:22;8.00;;;7.20;;
15055;SDS011;7626;42.674;23.284;2023-04-24T07:58:50;7.57;;;6.77;;
15055;SDS011;7626;42.674;23.284;2023-04-24T08:01:19;11.60;;;7.67;;
15055;SDS011;7626;42.674;23.284;2023-04-24T08:03:46;8.97;;;7.47;;
15055;SDS011;7626;42.674;23.284;2023-04-24T08:06:16;10.87;;;8.37;;
15055;SDS011;7626;42.674;23.284;2023-04-24T08:08:44;7.77;;;6.97;;
15055;SDS011;7626;42.674;23.284;2023-04-24T08:11:11;8.37;;;6.63;;
15055;SDS011;7626;42.674;23.284;2023-04-24T08:13:39;9.63;;;7.83;;
15055;SDS011;7626;42.674;23.284;2023-04-24T08:16:07;8.60;;;7.80;;
15055;SDS011;7626;42.674;23.284;2023-04-24T08:18:36;9.57;;;7.13;;
15055;SDS011;7626;42.674;23.284;2023-04-24T08:21:05;8.30;;;7.50;;
15055;SDS011;7626;42.674;23.284;2023-04-24T08:23:33;11.80;;;10.67;;
15055;SDS011;7626;42.674;23.284;2023-04-24T08:26:04;12.50;;;10.83;;
15055;SDS011;7626;42.674;23.284;2023-04-24T08:28:34;8.67;;;7.77;;
15055;SDS011;7626;42.674;23.284;2023-04-24T08:31:02;8.90;;;7.90;;
15055;SDS011;7626;42.674;23.284;2023-04-24T08:33:30;9.53;;;8.10;;
15055;SDS011;7626;42.674;23.284;2023-04-24T08:36:02;9.13;;;8.03;;
15055;SDS011;7626;42.674;23.284;2023-04-24T08:38:32;10.10;;;8.60;;
15055;SDS011;7626;42.674;23.284;2023-04-24T08:41:02;9.00;;;7.77;;
15055;SDS011;7626;42.674;23.284;2023-04-24T08:43:31;7.97;;;7.23;;
15055;SDS011;7626;42.674;23.284;2023-04-24T08:46:00;9.07;;;7.70;;
15055;SDS011;7626;42.674;23.284;2023-04-24T08:48:30;9.53;;;8.23;;
15055;SDS011;7626;42.674;23.284;2023-04-24T08:51:06;8.53;;;7.60;;
15055;SDS011;7626;42.674;23.284;2023-04-24T08:53:33;9.67;;;7.63;;
15055;SDS011;7626;42.674;23.284;2023-04-24T08:56:01;9.07;;;7.73;;
15055;SDS011;7626;42.674;23.284;2023-04-24T08:58:32;8.57;;;7.57;;
15055;SDS011;7626;42.674;23.284;2023-04-24T09:01:00;8.80;;;7.77;;
15055;SDS011;7626;42.674;23.284;2023-04-24T09:03:29;10.27;;;8.67;;
15055;SDS011;7626;42.674;23.284;2023-04-24T09:05:59;10.73;;;8.00;;
15055;SDS011;7626;42.674;23.284;2023-04-24T09:08:28;12.80;;;10.00;;
15055;SDS011;7626;42.674;23.284;2023-04-24T09:10:57;10.50;;;8.80;;
15055;SDS011;7626;42.674;23.284;2023-04-24T09:13:28;9.50;;;8.60;;
15055;SDS011;7626;42.674;23.284;2023-04-24T09:15:56;9.33;;;8.00;;
15055;SDS011;7626;42.674;23.284;2023-04-24T09:18:25;8.03;;;7.33;;
15055;SDS011;7626;42.674;23.284;2023-04-24T09:20:57;7.87;;;6.93;;
15055;SDS011;7626;42.674;23.284;2023-04-24T09:23:26;7.93;;;7.23;;
15055;SDS011;7626;42.674;23.284;2023-04-24T09:25:55;8.60;;;6.97;;
15055;SDS011;7626;42.674;23.284;2023-04-24T09:28:25;7.88;;;7.18;;
15055;SDS011;7626;42.674;23.284;2023-04-24T09:31:01;7.80;;;7.00;;
15055;SDS011;7626;42.674;23.284;2023-04-24T09:33:30;8.18;;;7.00;;
15055;SDS011;7626;42.674;23.284;2023-04-24T09:36:01;7.77;;;6.97;;
15055;SDS011;7626;42.674;23.284;2023-04-24T09:38:33;9.80;;;7.13;;
15055;SDS011;7626;42.674;23.284;2023-04-24T09:41:04;11.07;;;9.13;;
15055;SDS011;7626;42.674;23.284;2023-04-24T09:43:32;7.53;;;6.80;;
15055;SDS011;7626;42.674;23.284;2023-04-24T09:46:04;7.80;;;7.00;;
15055;SDS011;7626;42.674;23.284;2023-04-24T09:48:41;8.03;;;6.47;;
15055;SDS011;7626;42.674;23.284;2023-04-24T09:51:08;7.10;;;6.33;;
15055;SDS011;7626;42.674;23.284;2023-04-24T09:53:38;9.05;;;6.68;;
15055;SDS011;7626;42.674;23.284;2023-04-24T09:56:08;8.23;;;6.30;;
15055;SDS011;7626;42.674;23.284;2023-04-24T09:58:36;7.13;;;6.23;;
15055;SDS011;7626;42.674;23.284;2023-04-24T10:01:04;7.97;;;6.50;;
15055;SDS011;7626;42.674;23.284;2023-04-24T10:03:40;7.43;;;6.43;;
15055;SDS011;7626;42.674;23.284;2023-04-24T10:06:08;7.20;;;6.30;;
15055;SDS011;7626;42.674;23.284;2023-04-24T10:08:39;6.95;;;6.20;;
15055;SDS011;7626;42.674;23.284;2023-04-24T10:11:08;9.40;;;6.20;;
15055;SDS011;7626;42.674;23.284;2023-04-24T10:13:37;6.68;;;6.05;;
15055;SDS011;7626;42.674;23.284;2023-04-24T10:16:04;7.90;;;6.53;;
15055;SDS011;7626;42.674;23.284;2023-04-24T10:18:32;8.85;;;7.35;;
15055;SDS011;7626;42.674;23.284;2023-04-24T10:21:02;7.53;;;6.50;;
15055;SDS011;7626;42.674;23.284;2023-04-24T10:23:31;7.40;;;5.65;;
15055;SDS011;7626;42.674;23.284;2023-04-24T10:25:58;5.78;;;5.18;;
15055;SDS011;7626;42.674;23.284;2023-04-24T10:28:34;6.20;;;5.60;;
15055;SDS011;7626;42.674;23.284;2023-04-24T10:31:04;6.45;;;5.28;;
15055;SDS011;7626;42.674;23.284;2023-04-24T10:33:32;7.38;;;5.68;;
15055;SDS011;7626;42.674;23.284;2023-04-24T10:36:01;7.63;;;5.50;;
15055;SDS011;7626;42.674;23.284;2023-04-24T10:38:30;6.70;;;5.10;;
15055;SDS011;7626;42.674;23.284;2023-04-24T10:40:57;5.80;;;5.03;;
15055;SDS011;7626;42.674;23.284;2023-04-24T10:43:23;4.75;;;4.28;;
15055;SDS011;7626;42.674;23.284;2023-04-24T10:46:06;6.72;;;4.72;;
15055;SDS011;7626;42.674;23.284;2023-04-24T10:48:41;7.43;;;6.15;;
15055;SDS011;7626;42.674;23.284;2023-04-24T10:51:12;5.30;;;4.90;;
15055;SDS011;7626;42.674;23.284;2023-04-24T10:53:39;5.57;;;4.65;;
15055;SDS011;7626;42.674;23.284;2023-04-24T10:56:08;6.43;;;4.60;;
15055;SDS011;7626;42.674;23.284;2023-04-24T10:58:39;4.68;;;4.28;;
15055;SDS011;7626;42.674;23.284;2023-04-24T11:01:08;4.53;;;4.13;;
15055;SDS011;7626;42.674;23.284;2023-04-24T11:03:38;4.80;;;4.10;;
15055;SDS011;7626;42.674;23.284;2023-04-24T11:06:16;5.95;;;5.10;;
15055;SDS011;7626;42.674;23.284;2023-04-24T11:09:07;5.05;;;4.53;;
15055;SDS011;7626;42.674;23.284;2023-04-24T11:11:35;6.78;;;4.40;;
15055;SDS011;7626;42.674;23.284;2023-04-24T11:14:06;18.00;;;6.45;;
15055;SDS011;7626;42.674;23.284;2023-04-24T11:16:44;8.98;;;5.13;;
15055;SDS011;7626;42.674;23.284;2023-04-24T11:19:17;15.80;;;5.40;;
15055;SDS011;7626;42.674;23.284;2023-04-24T11:21:46;9.55;;;4.90;;
15055;SDS011;7626;42.674;23.284;2023-04-24T11:24:24;5.40;;;4.90;;
15055;SDS011;7626;42.674;23.284;2023-04-24T11:26:51;4.90;;;4.40;;
15055;SDS011;7626;42.674;23.284;2023-04-24T11:29:19;5.10;;;4.60;;
15055;SDS011;7626;42.674;23.284;2023-04-24T11:31:50;5.83;;;5.37;;
15055;SDS011;7626;42.674;23.284;2023-04-24T11:34:17;6.40;;;5.00;;
15055;SDS011;7626;42.674;23.284;2023-04-24T11:36:49;4.80;;;4.40;;
15055;SDS011;7626;42.674;23.284;2023-04-24T11:39:16;5.27;;;4.80;;
15055;SDS011;7626;42.674;23.284;2023-04-24T11:42:02;4.90;;;4.50;;
15055;SDS011;7626;42.674;23.284;2023-04-24T11:44:28;4.90;;;4.50;;
15055;SDS011;7626;42.674;23.284;2023-04-24T11:46:58;4.60;;;4.20;;
15055;SDS011;7626;42.674;23.284;2023-04-24T11:49:27;4.80;;;4.40;;
15055;SDS011;7626;42.674;23.284;2023-04-24T11:51:54;4.83;;;4.43;;
15055;SDS011;7626;42.674;23.284;2023-04-24T11:54:21;5.37;;;4.97;;
15055;SDS011;7626;42.674;23.284;2023-04-24T11:56:49;4.90;;;4.43;;
15055;SDS011;7626;42.674;23.284;2023-04-24T11:59:16;6.00;;;4.77;;
15055;SDS011;7626;42.674;23.284;2023-04-24T12:01:44;5.10;;;4.60;;
15055;SDS011;7626;42.674;23.284;2023-04-24T12:04:14;4.90;;;4.50;;
15055;SDS011;7626;42.674;23.284;2023-04-24T12:09:26;4.93;;;4.43;;
15055;SDS011;7626;42.674;23.284;2023-04-24T12:11:52;5.20;;;4.70;;
15055;SDS011;7626;42.674;23.284;2023-04-24T12:14:20;4.50;;;4.10;;
15055;SDS011;7626;42.674;23.284;2023-04-24T12:16:49;4.67;;;4.20;;
15055;SDS011;7626;42.674;23.284;2023-04-24T12:19:20;4.60;;;4.17;;
15055;SDS011;7626;42.674;23.284;2023-04-24T12:21:58;5.23;;;4.30;;
15055;SDS011;7626;42.674;23.284;2023-04-24T12:24:29;4.37;;;3.97;;
15055;SDS011;7626;42.674;23.284;2023-04-24T12:26:58;4.40;;;4.00;;
15055;SDS011;7626;42.674;23.284;2023-04-24T12:29:28;4.53;;;4.23;;
15055;SDS011;7626;42.674;23.284;2023-04-24T12:31:56;4.73;;;4.33;;
15055;SDS011;7626;42.674;23.284;2023-04-24T12:34:28;4.27;;;3.87;;
15055;SDS011;7626;42.674;23.284;2023-04-24T12:36:57;4.53;;;4.13;;
15055;SDS011;7626;42.674;23.284;2023-04-24T12:39:35;5.60;;;4.53;;
15055;SDS011;7626;42.674;23.284;2023-04-24T12:42:05;5.53;;;5.03;;
15055;SDS011;7626;42.674;23.284;2023-04-24T12:44:33;5.43;;;4.93;;
15055;SDS011;7626;42.674;23.284;2023-04-24T12:49:47;5.30;;;4.80;;
15055;SDS011;7626;42.674;23.284;2023-04-24T12:52:17;5.97;;;5.22;;
15055;SDS011;7626;42.674;23.284;2023-04-24T12:55:00;5.80;;;5.30;;
15055;SDS011;7626;42.674;23.284;2023-04-24T12:57:28;5.65;;;4.70;;
15055;SDS011;7626;42.674;23.284;2023-04-24T12:59:56;5.20;;;4.70;;
15055;SDS011;7626;42.674;23.284;2023-04-24T13:02:23;5.65;;;4.95;;
15055;SDS011;7626;42.674;23.284;2023-04-24T13:04:52;5.40;;;4.93;;
15055;SDS011;7626;42.674;23.284;2023-04-24T13:07:20;6.00;;;4.93;;
15055;SDS011;7626;42.674;23.284;2023-04-24T13:09:48;6.78;;;5.05;;
15055;SDS011;7626;42.674;23.284;2023-04-24T13:12:16;5.43;;;4.93;;
15055;SDS011;7626;42.674;23.284;2023-04-24T13:14:43;5.43;;;4.40;;
15055;SDS011;7626;42.674;23.284;2023-04-24T13:17:15;5.07;;;4.68;;
15055;SDS011;7626;42.674;23.284;2023-04-24T13:19:43;5.85;;;4.57;;
15055;SDS011;7626;42.674;23.284;2023-04-24T13:22:11;5.35;;;4.55;;
15055;SDS011;7626;42.674;23.284;2023-04-24T13:24:40;5.18;;;4.47;;
15055;SDS011;7626;42.674;23.284;2023-04-24T13:27:06;4.97;;;4.35;;
15055;SDS011;7626;42.674;23.284;2023-04-24T13:29:36;4.60;;;4.10;;
15055;SDS011;7626;42.674;23.284;2023-04-24T13:32:05;6.05;;;4.20;;
15055;SDS011;7626;42.674;23.284;2023-04-24T13:37:21;6.95;;;4.70;;
15055;SDS011;7626;42.674;23.284;2023-04-24T13:39:51;7.05;;;4.50;;
15055;SDS011;7626;42.674;23.284;2023-04-24T13:42:18;6.13;;;4.72;;
15055;SDS011;7626;42.674;23.284;2023-04-24T13:44:45;4.82;;;4.43;;
15055;SDS011;7626;42.674;23.284;2023-04-24T13:47:13;4.75;;;4.32;;
15055;SDS011;7626;42.674;23.284;2023-04-24T13:49:40;4.65;;;4.07;;
15055;SDS011;7626;42.674;23.284;2023-04-24T13:52:06;5.53;;;4.45;;
15055;SDS011;7626;42.674;23.284;2023-04-24T13:54:38;5.80;;;4.45;;
15055;SDS011;7626;42.674;23.284;2023-04-24T13:57:07;6.47;;;4.32;;
15055;SDS011;7626;42.674;23.284;2023-04-24T13:59:34;4.75;;;4.35;;
15055;SDS011;7626;42.674;23.284;2023-04-24T14:02:02;7.65;;;4.50;;
15055;SDS011;7626;42.674;23.284;2023-04-24T14:04:29;4.35;;;3.72;;
15055;SDS011;7626;42.674;23.284;2023-04-24T14:06:57;4.88;;;4.25;;
15055;SDS011;7626;42.674;23.284;2023-04-24T14:09:25;4.57;;;4.18;;
15055;SDS011;7626;42.674;23.284;2023-04-24T14:11:54;4.57;;;4.18;;
15055;SDS011;7626;42.674;23.284;2023-04-24T14:14:22;4.78;;;4.28;;
15055;SDS011;7626;42.674;23.284;2023-04-24T14:16:50;5.38;;;4.00;;
15055;SDS011;7626;42.674;23.284;2023-04-24T14:19:18;5.88;;;4.40;;
15055;SDS011;7626;42.674;23.284;2023-04-24T14:21:45;5.00;;;4.50;;
15055;SDS011;7626;42.674;23.284;2023-04-24T14:24:11;5.70;;;4.55;;
15055;SDS011;7626;42.674;23.284;2023-04-24T14:26:38;4.28;;;3.85;;
15055;SDS011;7626;42.674;23.284;2023-04-24T14:29:17;6.00;;;4.15;;
15055;SDS011;7626;42.674;23.284;2023-04-24T14:31:46;4.57;;;4.18;;
15055;SDS011;7626;42.674;23.284;2023-04-24T14:34:14;4.63;;;4.20;;
15055;SDS011;7626;42.674;23.284;2023-04-24T14:36:46;7.10;;;4.32;;
15055;SDS011;7626;42.674;23.284;2023-04-24T14:39:22;29.60;;;6.90;;
15055;SDS011;7626;42.674;23.284;2023-04-24T14:41:51;23.60;;;7.07;;
15055;SDS011;7626;42.674;23.284;2023-04-24T14:44:24;19.33;;;6.45;;
15055;SDS011;7626;42.674;23.284;2023-04-24T14:46:53;7.15;;;4.97;;
15055;SDS011;7626;42.674;23.284;2023-04-24T14:49:22;5.20;;;4.70;;
15055;SDS011;7626;42.674;23.284;2023-04-24T14:51:50;9.40;;;5.25;;
15055;SDS011;7626;42.674;23.284;2023-04-24T14:54:18;6.03;;;4.70;;
15055;SDS011;7626;42.674;23.284;2023-04-24T14:56:52;6.03;;;4.57;;
15055;SDS011;7626;42.674;23.284;2023-04-24T14:59:20;7.20;;;4.13;;
15055;SDS011;7626;42.674;23.284;2023-04-24T15:01:48;6.03;;;4.33;;
15055;SDS011;7626;42.674;23.284;2023-04-24T15:04:17;7.37;;;4.63;;
15055;SDS011;7626;42.674;23.284;2023-04-24T15:06:48;7.27;;;4.53;;